createdAt,value
2022-09-15T00:00:57.932Z,1.70
2022-09-15T00:03:25.502Z,2.57
2022-09-15T00:05:54.734Z,1.90
2022-09-15T00:08:22.264Z,1.40
2022-09-15T00:10:50.303Z,1.57
2022-09-15T00:13:18.028Z,4.77
2022-09-15T00:15:45.740Z,1.70
2022-09-15T00:18:13.304Z,2.33
2022-09-15T00:20:41.550Z,2.70
2022-09-15T00:23:10.808Z,1.53
2022-09-15T00:25:42.143Z,2.67
2022-09-15T00:28:09.699Z,1.80
2022-09-15T00:30:41.102Z,1.93
2022-09-15T00:33:08.798Z,1.63
2022-09-15T00:35:37.739Z,1.33
2022-09-15T00:38:05.260Z,1.50
2022-09-15T00:40:34.115Z,1.53
2022-09-15T00:43:02.459Z,1.83
2022-09-15T00:45:30.119Z,1.53
2022-09-15T00:47:57.736Z,1.23
2022-09-15T00:50:25.320Z,2.97
2022-09-15T00:52:55.074Z,1.70
2022-09-15T00:55:25.108Z,1.50
2022-09-15T00:57:55.947Z,1.27
2022-09-15T01:00:25.963Z,1.37
2022-09-15T01:02:53.810Z,1.30
2022-09-15T01:05:22.584Z,1.20
2022-09-15T01:07:52.581Z,2.40
2022-09-15T01:10:23.075Z,1.33
2022-09-15T01:12:50.665Z,1.43
2022-09-15T01:15:19.635Z,2.00
2022-09-15T01:17:54.202Z,1.27
2022-09-15T01:20:32.157Z,1.10
2022-09-15T01:23:13.786Z,1.20
2022-09-15T01:25:51.730Z,1.20
2022-09-15T01:28:35.962Z,1.00
2022-09-15T01:31:09.051Z,0.90
2022-09-15T01:33:37.543Z,1.00
2022-09-15T01:36:07.254Z,1.40
2022-09-15T01:38:47.898Z,1.20
2022-09-15T01:41:17.204Z,1.80
2022-09-15T01:43:46.934Z,1.13
2022-09-15T01:46:16.293Z,1.23
2022-09-15T01:48:44.307Z,1.43
2022-09-15T01:51:12.031Z,1.00
2022-09-15T01:53:39.719Z,1.07
2022-09-15T01:56:08.462Z,1.30
2022-09-15T01:58:36.058Z,1.00
2022-09-15T02:01:06.837Z,1.40
2022-09-15T02:03:40.394Z,1.00
2022-09-15T02:06:13.142Z,1.20
2022-09-15T02:08:44.992Z,0.90
2022-09-15T02:11:16.032Z,1.70
2022-09-15T02:13:48.683Z,1.43
2022-09-15T02:16:19.966Z,1.20
2022-09-15T02:18:58.005Z,1.20
2022-09-15T02:21:29.709Z,1.53
2022-09-15T02:23:59.708Z,0.90
2022-09-15T02:26:28.656Z,1.30
2022-09-15T02:28:57.225Z,1.27
2022-09-15T02:31:25.982Z,2.40
2022-09-15T02:33:57.979Z,1.03
2022-09-15T02:36:26.887Z,1.03
2022-09-15T02:38:57.944Z,1.10
2022-09-15T02:41:25.503Z,0.80
2022-09-15T02:43:53.121Z,1.17
2022-09-15T02:46:22.031Z,2.00
2022-09-15T02:48:50.139Z,1.00
2022-09-15T02:51:19.259Z,1.27
2022-09-15T02:53:47.072Z,1.00
2022-09-15T02:56:16.467Z,0.80
2022-09-15T02:58:44.187Z,0.90
2022-09-15T03:01:14.877Z,1.33
2022-09-15T03:03:43.403Z,0.80
2022-09-15T03:06:21.435Z,0.93
2022-09-15T03:08:51.469Z,1.27
2022-09-15T03:11:20.206Z,1.30
2022-09-15T03:13:47.886Z,2.07
2022-09-15T03:16:16.352Z,1.00
2022-09-15T03:18:43.929Z,2.33
2022-09-15T03:21:13.095Z,0.80
2022-09-15T03:23:40.651Z,0.77
2022-09-15T03:26:10.488Z,1.10
2022-09-15T03:28:38.244Z,0.87
2022-09-15T03:31:06.343Z,1.00
2022-09-15T03:33:33.919Z,0.80
2022-09-15T03:36:01.483Z,0.90
2022-09-15T03:38:28.982Z,0.80
2022-09-15T03:40:57.136Z,1.33
2022-09-15T03:43:26.069Z,1.07
2022-09-15T03:45:53.751Z,1.33
2022-09-15T03:48:21.300Z,0.80
2022-09-15T03:50:49.157Z,1.13
2022-09-15T03:53:17.638Z,1.00
2022-09-15T03:55:45.271Z,1.13
2022-09-15T03:58:12.835Z,1.10
2022-09-15T04:00:41.791Z,1.10
2022-09-15T04:03:09.474Z,1.10
2022-09-15T04:05:38.579Z,0.90
2022-09-15T04:08:06.202Z,1.03
2022-09-15T04:10:33.809Z,1.10
2022-09-15T04:13:01.406Z,1.00
2022-09-15T04:15:28.930Z,1.10
2022-09-15T04:17:58.133Z,1.00
2022-09-15T04:20:25.624Z,0.90
2022-09-15T04:22:53.140Z,1.47
2022-09-15T04:25:20.663Z,1.03
2022-09-15T04:27:48.168Z,0.90
2022-09-15T04:30:15.693Z,0.80
2022-09-15T04:32:43.190Z,1.90
2022-09-15T04:35:12.290Z,1.07
2022-09-15T04:37:39.798Z,0.80
2022-09-15T04:40:08.008Z,1.33
2022-09-15T04:42:35.583Z,1.00
2022-09-15T04:45:03.092Z,1.00
2022-09-15T04:47:30.864Z,1.10
2022-09-15T04:49:58.351Z,1.13
2022-09-15T04:52:27.207Z,1.10
2022-09-15T04:54:54.728Z,1.20
2022-09-15T04:57:22.279Z,0.97
2022-09-15T04:59:49.762Z,0.93
2022-09-15T05:02:17.347Z,1.00
2022-09-15T05:04:45.950Z,2.00
2022-09-15T05:07:13.444Z,1.00
2022-09-15T05:09:42.309Z,1.00
2022-09-15T05:12:09.798Z,3.37
2022-09-15T05:14:37.278Z,1.87
2022-09-15T05:17:04.823Z,1.37
2022-09-15T05:19:32.320Z,1.10
2022-09-15T05:21:59.823Z,1.17
2022-09-15T05:24:27.312Z,1.03
2022-09-15T05:26:56.166Z,1.30
2022-09-15T05:29:23.796Z,2.10
2022-09-15T05:31:51.409Z,2.87
2022-09-15T05:34:19.112Z,2.97
2022-09-15T05:36:46.599Z,2.37
2022-09-15T05:39:14.087Z,3.10
2022-09-15T05:41:41.594Z,1.20
2022-09-15T05:44:12.073Z,2.63
2022-09-15T05:46:39.646Z,1.60
2022-09-15T05:49:08.642Z,2.10
2022-09-15T05:51:36.226Z,1.70
2022-09-15T05:54:03.748Z,1.30
2022-09-15T05:56:31.351Z,1.83
2022-09-15T05:58:58.903Z,1.33
2022-09-15T06:01:28.297Z,1.90
2022-09-15T06:03:56.838Z,1.57
2022-09-15T06:06:25.330Z,1.53
2022-09-15T06:08:58.165Z,1.40
2022-09-15T06:11:27.320Z,1.57
2022-09-15T06:13:54.827Z,1.60
2022-09-15T06:16:23.150Z,1.40
2022-09-15T06:18:52.827Z,1.10
2022-09-15T06:21:21.347Z,0.90
2022-09-15T06:23:53.358Z,1.37
2022-09-15T06:26:20.960Z,1.63
2022-09-15T06:28:49.322Z,2.27
2022-09-15T06:31:16.903Z,1.30
2022-09-15T06:33:45.045Z,1.33
2022-09-15T06:36:14.219Z,1.53
2022-09-15T06:38:42.269Z,1.70
2022-09-15T06:41:10.017Z,1.53
2022-09-15T06:43:37.624Z,1.60
2022-09-15T06:46:05.964Z,1.37
2022-09-15T06:48:33.544Z,1.50
2022-09-15T06:51:01.583Z,1.20
2022-09-15T06:53:31.024Z,2.10
2022-09-15T06:56:02.547Z,2.07
2022-09-15T06:58:30.093Z,3.33
2022-09-15T07:01:01.393Z,1.70
2022-09-15T07:03:28.999Z,1.20
2022-09-15T07:05:56.655Z,1.60
2022-09-15T07:08:24.176Z,1.73
2022-09-15T07:10:53.376Z,1.93
2022-09-15T07:13:20.883Z,1.60
2022-09-15T07:15:52.443Z,1.17
2022-09-15T07:18:20.000Z,1.30
2022-09-15T07:20:47.539Z,2.20
2022-09-15T07:23:15.287Z,1.70
2022-09-15T07:25:43.985Z,1.60
2022-09-15T07:28:13.139Z,1.60
2022-09-15T07:30:41.035Z,1.63
2022-09-15T07:33:09.028Z,1.40
2022-09-15T07:35:41.502Z,1.70
2022-09-15T07:38:09.024Z,1.60
2022-09-15T07:40:36.569Z,3.63
2022-09-15T07:43:04.587Z,1.90
2022-09-15T07:45:35.182Z,1.40
2022-09-15T07:48:03.232Z,2.10
2022-09-15T07:50:30.824Z,3.00
2022-09-15T07:52:58.361Z,1.60
2022-09-15T07:55:25.856Z,1.73
2022-09-15T07:57:57.756Z,1.40
2022-09-15T08:00:25.377Z,3.10
2022-09-15T08:02:54.571Z,1.60
2022-09-15T08:05:22.144Z,2.13
2022-09-15T08:07:49.653Z,1.20
2022-09-15T08:10:17.254Z,1.40
2022-09-15T08:12:44.755Z,1.60
2022-09-15T08:15:12.351Z,1.23
2022-09-15T08:17:39.879Z,5.50
2022-09-15T08:20:09.272Z,1.63
2022-09-15T08:22:36.791Z,1.83
2022-09-15T08:25:04.715Z,1.90
2022-09-15T08:27:32.211Z,2.73
2022-09-15T08:29:59.782Z,3.00
2022-09-15T08:32:27.335Z,1.60
2022-09-15T08:34:54.837Z,1.97
2022-09-15T08:37:23.698Z,1.60
2022-09-15T08:39:51.923Z,2.30
2022-09-15T08:42:20.443Z,1.37
2022-09-15T08:44:50.483Z,1.50
2022-09-15T08:47:19.780Z,2.20
2022-09-15T08:49:53.732Z,2.87
2022-09-15T08:52:23.528Z,2.73
2022-09-15T08:54:54.518Z,2.50
2022-09-15T08:57:24.583Z,2.20
2022-09-15T08:59:54.269Z,1.53
2022-09-15T09:02:38.960Z,1.60
2022-09-15T09:05:12.032Z,4.33
2022-09-15T09:07:50.918Z,2.63
2022-09-15T09:10:23.003Z,2.20
2022-09-15T09:12:56.445Z,1.83
2022-09-15T09:15:32.354Z,2.20
2022-09-15T09:18:18.059Z,1.50
2022-09-15T09:20:49.899Z,1.67
2022-09-15T09:23:18.887Z,1.77
2022-09-15T09:25:49.631Z,1.90
2022-09-15T09:28:24.795Z,2.00
2022-09-15T09:30:52.717Z,2.67
2022-09-15T09:33:25.616Z,1.80
2022-09-15T09:35:53.615Z,1.63
2022-09-15T09:38:21.943Z,2.63
2022-09-15T09:40:51.514Z,1.90
2022-09-15T09:43:19.087Z,1.80
2022-09-15T09:45:46.835Z,1.57
2022-09-15T09:48:15.764Z,2.00
2022-09-15T09:50:44.106Z,2.80
2022-09-15T09:53:18.686Z,2.07
2022-09-15T09:55:46.731Z,1.50
2022-09-15T09:58:19.366Z,2.80
2022-09-15T10:00:47.591Z,2.00
2022-09-15T10:03:16.582Z,2.10
2022-09-15T10:05:44.867Z,1.90
2022-09-15T10:08:19.234Z,1.57
2022-09-15T10:10:53.395Z,1.60
2022-09-15T10:13:22.387Z,1.50
2022-09-15T10:15:54.352Z,2.43
2022-09-15T10:18:27.732Z,1.37
2022-09-15T10:20:55.259Z,1.67
2022-09-15T10:23:27.119Z,1.90
2022-09-15T10:25:59.443Z,1.33
2022-09-15T10:28:29.412Z,1.30
2022-09-15T10:30:59.704Z,1.70
2022-09-15T10:33:28.266Z,1.97
2022-09-15T10:35:56.691Z,1.33
2022-09-15T10:38:31.098Z,1.90
2022-09-15T10:41:04.306Z,1.37
2022-09-15T10:43:39.387Z,1.67
2022-09-15T10:46:13.085Z,1.40
2022-09-15T10:48:47.382Z,1.40
2022-09-15T10:51:21.890Z,1.30
2022-09-15T10:53:59.994Z,1.23
2022-09-15T10:56:30.423Z,1.43
2022-09-15T10:59:03.881Z,1.97
2022-09-15T11:01:46.304Z,1.00
2022-09-15T11:04:34.747Z,1.20
2022-09-15T11:07:05.036Z,1.50
2022-09-15T11:09:34.762Z,1.53
2022-09-15T11:12:09.245Z,1.17
2022-09-15T11:14:44.533Z,1.90
2022-09-15T11:17:22.003Z,1.20
2022-09-15T11:19:59.022Z,1.50
2022-09-15T11:22:29.267Z,2.50
2022-09-15T11:24:58.287Z,2.07
2022-09-15T11:27:29.510Z,1.43
2022-09-15T11:30:03.604Z,2.03
2022-09-15T11:32:33.578Z,1.67
2022-09-15T11:35:05.034Z,2.30
2022-09-15T11:37:38.631Z,1.93
2022-09-15T11:40:12.926Z,1.90
2022-09-15T11:42:43.078Z,1.77
2022-09-15T11:45:16.934Z,2.10
2022-09-15T11:47:46.190Z,1.20
2022-09-15T11:50:17.932Z,1.60
2022-09-15T11:52:48.118Z,1.40
2022-09-15T11:55:19.198Z,1.83
2022-09-15T11:57:50.078Z,1.50
2022-09-15T12:00:19.185Z,1.60
2022-09-15T12:02:51.182Z,2.13
2022-09-15T12:05:22.082Z,1.60
2022-09-15T12:07:52.267Z,1.63
2022-09-15T12:10:21.847Z,1.50
2022-09-15T12:12:51.387Z,1.33
2022-09-15T12:15:27.044Z,1.73
2022-09-15T12:18:06.469Z,1.60
2022-09-15T12:20:45.751Z,1.37
2022-09-15T12:23:20.751Z,2.70
2022-09-15T12:25:59.199Z,2.10
2022-09-15T12:28:27.723Z,2.00
2022-09-15T12:31:10.684Z,2.87
2022-09-15T12:33:46.461Z,3.03
2022-09-15T12:36:47.326Z,3.87
2022-09-15T12:39:22.939Z,4.27
2022-09-15T12:41:50.847Z,3.90
2022-09-15T12:44:23.795Z,6.17
2022-09-15T12:46:52.027Z,2.70
2022-09-15T12:49:21.972Z,1.90
2022-09-15T12:51:50.724Z,2.30
2022-09-15T12:54:22.227Z,1.57
2022-09-15T12:56:52.018Z,1.90
2022-09-15T12:59:25.172Z,1.67
2022-09-15T13:01:53.497Z,3.20
2022-09-15T13:04:26.954Z,1.80
2022-09-15T13:07:12.883Z,1.63
2022-09-15T13:09:44.842Z,1.80
2022-09-15T13:12:14.807Z,2.20
2022-09-15T13:14:44.810Z,1.60
2022-09-15T13:17:16.336Z,1.43
2022-09-15T13:19:46.908Z,1.37
2022-09-15T13:22:18.238Z,1.40
2022-09-15T13:24:48.248Z,1.60
2022-09-15T13:27:17.336Z,2.10
2022-09-15T13:29:47.390Z,2.43
2022-09-15T13:32:20.392Z,1.50
2022-09-15T13:35:18.301Z,1.60
2022-09-15T13:38:15.147Z,1.60
2022-09-15T13:41:15.135Z,1.77
2022-09-15T13:44:05.188Z,1.80
2022-09-15T13:46:38.180Z,2.10
2022-09-15T13:49:16.799Z,1.80
2022-09-15T13:51:53.285Z,1.93
2022-09-15T13:54:21.284Z,2.00
2022-09-15T13:56:52.964Z,1.90
2022-09-15T13:59:24.201Z,1.87
2022-09-15T14:01:53.007Z,1.93
2022-09-15T14:04:22.708Z,1.90
2022-09-15T14:06:57.029Z,4.50
2022-09-15T14:09:28.780Z,2.37
2022-09-15T14:11:57.796Z,2.10
2022-09-15T14:14:36.250Z,4.23
2022-09-15T14:17:04.236Z,2.67
2022-09-15T14:19:33.999Z,2.73
2022-09-15T14:22:03.357Z,2.70
2022-09-15T14:24:31.355Z,2.33
2022-09-15T14:27:00.008Z,3.07
2022-09-15T14:29:27.928Z,2.97
2022-09-15T14:31:59.879Z,2.80
2022-09-15T14:34:30.288Z,2.87
2022-09-15T14:37:00.823Z,2.40
2022-09-15T14:39:29.735Z,1.57
2022-09-15T14:41:57.296Z,2.30
2022-09-15T14:47:17.747Z,5.30
2022-09-15T14:49:45.413Z,5.67
2022-09-15T14:52:21.315Z,3.57
2022-09-15T14:54:51.594Z,1.13
2022-09-15T14:57:21.299Z,1.50
2022-09-15T14:59:52.453Z,1.30
2022-09-15T15:02:24.576Z,1.50
2022-09-15T15:04:53.765Z,2.13
2022-09-15T15:07:24.808Z,1.40
2022-09-15T15:09:56.370Z,2.27
2022-09-15T15:12:25.184Z,1.37
2022-09-15T15:14:53.210Z,2.17
2022-09-15T15:17:28.206Z,1.40
2022-09-15T15:19:59.418Z,1.40
2022-09-15T15:22:27.755Z,1.80
2022-09-15T15:24:56.631Z,1.53
2022-09-15T15:27:24.911Z,2.87
2022-09-15T15:29:52.752Z,1.60
2022-09-15T15:32:22.058Z,1.50
2022-09-15T15:34:50.542Z,1.37
2022-09-15T15:37:24.722Z,1.10
2022-09-15T15:39:53.361Z,1.10
2022-09-15T15:42:22.337Z,1.27
2022-09-15T15:44:59.984Z,1.37
2022-09-15T15:47:29.394Z,2.17
2022-09-15T15:50:16.141Z,1.50
2022-09-15T15:52:44.861Z,1.40
2022-09-15T15:55:14.037Z,1.33
2022-09-15T15:57:42.999Z,2.13
2022-09-15T16:00:21.280Z,1.40
2022-09-15T16:02:49.263Z,1.30
2022-09-15T16:05:16.798Z,1.50
2022-09-15T16:07:45.877Z,1.60
2022-09-15T16:10:16.362Z,1.67
2022-09-15T16:12:45.355Z,2.13
2022-09-15T16:15:14.123Z,1.30
2022-09-15T16:17:46.004Z,1.50
2022-09-15T16:20:15.729Z,1.33
2022-09-15T16:22:43.538Z,1.20
2022-09-15T16:25:14.230Z,1.50
2022-09-15T16:27:41.794Z,1.83
2022-09-15T16:30:12.891Z,1.53
2022-09-15T16:32:40.660Z,1.50
2022-09-15T16:35:15.903Z,1.50
2022-09-15T16:37:43.410Z,1.80
2022-09-15T16:40:11.095Z,1.87
2022-09-15T16:42:38.643Z,1.60
2022-09-15T16:45:15.680Z,1.63
2022-09-15T16:47:43.175Z,1.60
2022-09-15T16:50:11.231Z,1.73
2022-09-15T16:52:38.744Z,3.00
2022-09-15T16:55:13.108Z,2.53
2022-09-15T16:57:40.639Z,2.23
2022-09-15T17:00:08.718Z,2.10
2022-09-15T17:02:37.622Z,2.23
2022-09-15T17:05:11.097Z,1.70
2022-09-15T17:07:38.648Z,1.50
2022-09-15T17:10:06.763Z,1.83
2022-09-15T17:12:34.284Z,1.83
2022-09-15T17:15:01.791Z,1.70
2022-09-15T17:17:29.286Z,1.90
2022-09-15T17:19:58.146Z,1.90
2022-09-15T17:22:25.647Z,1.50
2022-09-15T17:24:53.148Z,1.90
2022-09-15T17:27:20.634Z,2.07
2022-09-15T17:29:48.159Z,2.13
2022-09-15T17:32:15.673Z,1.93
2022-09-15T17:34:43.169Z,2.03
2022-09-15T17:37:12.164Z,2.20
2022-09-15T17:39:39.682Z,1.97
2022-09-15T17:42:07.593Z,2.20
2022-09-15T17:44:37.611Z,2.00
2022-09-15T17:47:05.444Z,2.10
2022-09-15T17:49:32.910Z,2.27
2022-09-15T17:52:00.461Z,2.30
2022-09-15T17:54:31.067Z,2.37
2022-09-15T17:56:58.592Z,2.63
2022-09-15T17:59:26.114Z,2.30
2022-09-15T18:01:53.637Z,2.70
2022-09-15T18:04:21.196Z,2.60
2022-09-15T18:06:48.730Z,2.70
2022-09-15T18:09:17.603Z,2.53
2022-09-15T18:11:46.549Z,2.20
2022-09-15T18:14:14.090Z,2.50
2022-09-15T18:16:42.423Z,2.33
2022-09-15T18:19:10.803Z,2.10
2022-09-15T18:21:38.344Z,2.63
2022-09-15T18:24:06.260Z,2.30
2022-09-15T18:26:33.746Z,2.63
2022-09-15T18:29:03.404Z,2.17
2022-09-15T18:31:31.153Z,2.70
2022-09-15T18:33:58.683Z,2.00
2022-09-15T18:36:26.192Z,3.90
2022-09-15T18:38:53.840Z,2.00
2022-09-15T18:41:21.494Z,2.37
2022-09-15T18:43:49.848Z,2.83
2022-09-15T18:46:20.348Z,3.43
2022-09-15T18:48:47.928Z,3.27
2022-09-15T18:51:23.774Z,3.30
2022-09-15T18:53:57.180Z,3.50
2022-09-15T18:56:24.688Z,2.90
2022-09-15T18:58:53.090Z,4.40
2022-09-15T19:01:22.138Z,4.57
2022-09-15T19:03:49.770Z,2.70
2022-09-15T19:06:17.419Z,3.63
2022-09-15T19:08:44.898Z,2.60
2022-09-15T19:11:12.705Z,2.70
2022-09-15T19:13:40.194Z,2.83
2022-09-15T19:16:08.361Z,2.80
2022-09-15T19:18:37.446Z,2.97
2022-09-15T19:21:06.116Z,2.70
2022-09-15T19:23:33.694Z,2.67
2022-09-15T19:26:02.775Z,3.10
2022-09-15T19:28:30.379Z,2.63
2022-09-15T19:30:57.889Z,4.23
2022-09-15T19:33:25.680Z,2.90
2022-09-15T19:36:10.890Z,4.60
2022-09-15T19:38:42.244Z,2.87
2022-09-15T19:41:11.890Z,3.37
2022-09-15T19:43:40.256Z,3.00
2022-09-15T19:46:12.392Z,3.97
2022-09-15T19:48:42.806Z,3.13
2022-09-15T19:51:15.779Z,3.10
2022-09-15T19:53:43.469Z,4.33
2022-09-15T19:56:14.221Z,3.50
2022-09-15T19:58:41.796Z,3.20
2022-09-15T20:01:10.345Z,3.73
2022-09-15T20:03:37.983Z,3.10
2022-09-15T20:06:06.279Z,3.20
2022-09-15T20:08:35.534Z,3.40
2022-09-15T20:11:05.508Z,3.60
2022-09-15T20:13:33.236Z,4.10
2022-09-15T20:16:01.880Z,4.63
2022-09-15T20:18:30.742Z,4.53
2022-09-15T20:20:58.252Z,5.20
2022-09-15T20:23:25.759Z,4.20
2022-09-15T20:25:58.218Z,3.43
2022-09-15T20:28:26.283Z,3.73
2022-09-15T20:31:01.124Z,3.23
2022-09-15T20:33:28.670Z,6.47
2022-09-15T20:35:56.211Z,3.73
2022-09-15T20:38:23.756Z,3.37
2022-09-15T20:40:54.613Z,3.60
2022-09-15T20:43:23.592Z,3.37
2022-09-15T20:45:57.839Z,3.33
2022-09-15T20:48:25.371Z,5.40
2022-09-15T20:50:52.891Z,3.30
2022-09-15T20:53:20.403Z,3.17
2022-09-15T20:55:51.386Z,3.50
2022-09-15T20:58:18.887Z,3.83
2022-09-15T21:00:47.909Z,3.53
2022-09-15T21:03:15.860Z,3.40
2022-09-15T21:05:43.683Z,3.60
2022-09-15T21:08:11.392Z,3.73
2022-09-15T21:10:39.952Z,3.30
2022-09-15T21:13:07.484Z,3.97
2022-09-15T21:15:35.526Z,3.30
2022-09-15T21:18:04.486Z,3.10
2022-09-15T21:20:31.999Z,3.53
2022-09-15T21:22:59.705Z,3.00
2022-09-15T21:25:27.212Z,3.53
2022-09-15T21:27:54.728Z,3.57
2022-09-15T21:30:22.244Z,3.30
2022-09-15T21:32:49.739Z,3.17
2022-09-15T21:35:18.643Z,3.47
2022-09-15T21:37:46.169Z,2.90
2022-09-15T21:40:13.735Z,3.03
2022-09-15T21:42:41.328Z,3.37
2022-09-15T21:45:09.514Z,4.30
2022-09-15T21:47:37.439Z,3.43
2022-09-15T21:50:05.620Z,7.97
2022-09-15T21:52:35.230Z,4.07
2022-09-15T21:55:02.922Z,3.30
2022-09-15T21:57:30.463Z,3.63
2022-09-15T21:59:59.046Z,4.30
2022-09-15T22:02:26.587Z,3.50
2022-09-15T22:04:54.425Z,3.80
2022-09-15T22:07:22.072Z,3.70
2022-09-15T22:09:51.259Z,5.07
2022-09-15T22:12:18.821Z,3.90
2022-09-15T22:14:46.350Z,3.60
2022-09-15T22:17:13.869Z,3.63
2022-09-15T22:19:41.421Z,3.17
2022-09-15T22:22:09.009Z,3.50
2022-09-15T22:24:36.533Z,3.53
2022-09-15T22:27:05.441Z,3.67
2022-09-15T22:29:32.945Z,3.90
2022-09-15T22:32:00.515Z,3.23
2022-09-15T22:34:29.050Z,3.27
2022-09-15T22:36:56.597Z,3.77
2022-09-15T22:39:38.492Z,3.53
2022-09-15T22:42:13.209Z,3.43
2022-09-15T22:44:40.731Z,3.40
2022-09-15T22:47:09.403Z,3.30
2022-09-15T22:49:36.921Z,3.43
2022-09-15T22:52:04.456Z,4.00
2022-09-15T22:54:32.000Z,3.80
2022-09-15T22:56:59.503Z,3.57
2022-09-15T22:59:28.521Z,3.43
2022-09-15T23:01:56.231Z,3.60
2022-09-15T23:04:23.780Z,3.47
2022-09-15T23:06:51.577Z,4.67
2022-09-15T23:09:19.220Z,3.73
2022-09-15T23:11:46.746Z,3.60
2022-09-15T23:14:15.819Z,3.80
2022-09-15T23:16:44.997Z,5.80
2022-09-15T23:19:13.247Z,3.67
2022-09-15T23:21:40.762Z,3.90
2022-09-15T23:24:08.605Z,3.60
2022-09-15T23:26:36.476Z,4.00
2022-09-15T23:29:04.015Z,4.23
2022-09-15T23:31:31.587Z,4.13
2022-09-15T23:34:00.517Z,4.13
2022-09-15T23:36:28.042Z,3.57
2022-09-15T23:38:55.553Z,4.50
2022-09-15T23:41:23.476Z,3.87
2022-09-15T23:43:51.112Z,4.20
2022-09-15T23:46:19.230Z,4.90
2022-09-15T23:48:46.755Z,4.47
2022-09-15T23:51:15.625Z,4.40
2022-09-15T23:53:43.285Z,4.10
2022-09-15T23:56:10.855Z,4.40
2022-09-15T23:58:38.748Z,4.13
